Time;durP1;ratioP1;P1;durP2;ratioP2;P2;SDS_P1;SDS_P2;PMS_P1;PMS_P2;Temp;Humidity;BMP_temperature;BMP_pressure;BME280_temperature;BME280_humidity;BME280_pressure;Samples;Min_cycle;Max_cycle;Signal;HPM_P1;HPM_P2
2021/05/01 00:00:18;;;;;;;39.00;32.00;;;;;;;8.20;63.86;100226.14;126796;1101;103134;-85
2021/05/01 00:03:04;;;;;;;37.57;32.43;;;;;;;8.23;63.95;100229.66;126918;1101;102796;-84
2021/05/01 00:05:33;;;;;;;43.43;33.03;;;;;;;8.24;63.52;100231.38;126882;1101;102968;-83
2021/05/01 00:08:06;;;;;;;38.57;31.67;;;;;;;8.24;63.96;100232.28;127419;1101;102834;-84
2021/05/01 00:10:34;;;;;;;38.45;31.63;;;;;;;8.17;63.95;100231.52;126910;1096;102945;-83
2021/05/01 00:13:04;;;;;;;43.05;33.30;;;;;;;8.15;64.42;100237.75;126931;1096;102968;-84
2021/05/01 00:15:50;;;;;;;42.87;34.07;;;;;;;8.11;64.56;100239.58;126510;1104;102955;-84
2021/05/01 00:18:33;;;;;;;40.43;32.28;;;;;;;8.03;64.65;100241.51;126568;1104;101858;-84
2021/05/01 00:21:00;;;;;;;40.35;30.93;;;;;;;7.96;64.62;100232.80;126644;1101;103787;-83
2021/05/01 00:23:43;;;;;;;40.23;31.90;;;;;;;7.96;64.97;100231.93;126910;1101;103039;-83
2021/05/01 00:26:12;;;;;;;37.90;31.67;;;;;;;8.03;64.89;100231.77;126900;1101;102969;-83
2021/05/01 00:28:40;;;;;;;44.57;34.93;;;;;;;8.03;64.41;100238.86;126543;1101;102789;-84
2021/05/01 00:31:07;;;;;;;46.60;33.40;;;;;;;7.94;64.91;100237.23;127039;1097;101081;-85
2021/05/01 00:33:40;;;;;;;38.90;31.57;;;;;;;7.94;64.74;100234.58;126797;1101;103036;-84
2021/05/01 00:36:13;;;;;;;44.57;33.10;;;;;;;8.02;64.77;100242.41;126830;1096;102852;-84
2021/05/01 00:38:43;;;;;;;38.38;30.08;;;;;;;8.02;64.80;100245.06;127126;1101;102319;-83
2021/05/01 00:41:14;;;;;;;44.18;33.45;;;;;;;7.98;65.06;100236.30;127061;1101;103037;-85
2021/05/01 00:43:42;;;;;;;36.50;28.50;;;;;;;7.94;65.81;100249.63;126965;1101;102969;-81
2021/05/01 00:46:09;;;;;;;40.05;30.75;;;;;;;7.92;65.94;100246.15;127344;1101;102947;-83
2021/05/01 00:48:36;;;;;;;36.70;31.20;;;;;;;8.00;65.67;100250.39;126492;1101;103008;-83
2021/05/01 00:51:18;;;;;;;38.70;31.10;;;;;;;7.99;65.42;100243.33;126480;1104;103452;-83
2021/05/01 00:54:00;;;;;;;40.87;31.60;;;;;;;8.06;66.05;100249.40;126432;1104;103011;-83
2021/05/01 00:56:27;;;;;;;43.33;32.85;;;;;;;8.01;66.71;100241.55;126821;1096;103107;-85
2021/05/01 00:59:00;;;;;;;41.00;31.38;;;;;;;8.08;66.94;100236.10;127059;1101;103137;-83
2021/05/01 01:01:27;;;;;;;35.70;30.18;;;;;;;8.08;67.27;100234.34;127121;1101;103390;-84
2021/05/01 01:03:59;;;;;;;43.95;33.05;;;;;;;8.02;67.64;100235.34;127025;1101;102982;-84
2021/05/01 01:06:26;;;;;;;38.48;33.95;;;;;;;8.07;67.17;100234.38;126825;1101;102946;-82
2021/05/01 01:08:59;;;;;;;40.13;32.90;;;;;;;8.18;66.56;100243.89;127059;1101;103038;-84
2021/05/01 01:11:28;;;;;;;39.33;31.40;;;;;;;8.31;66.45;100252.46;127159;1101;101046;-83
2021/05/01 01:14:14;;;;;;;38.80;30.67;;;;;;;8.43;66.39;100251.35;126898;1101;102963;-82
2021/05/01 01:16:44;;;;;;;36.65;31.60;;;;;;;8.45;66.35;100238.97;127010;1101;103027;-83
2021/05/01 01:19:13;;;;;;;38.50;34.17;;;;;;;8.49;65.92;100247.73;127236;1101;102981;-83
2021/05/01 01:21:48;;;;;;;42.28;31.98;;;;;;;8.50;66.25;100255.69;127675;1102;102204;-84
2021/05/01 01:24:16;;;;;;;40.25;29.65;;;;;;;8.57;66.31;100267.05;126797;1101;102976;-84
2021/05/01 01:26:44;;;;;;;40.65;30.80;;;;;;;8.63;65.86;100271.35;128026;1101;101184;-83
2021/05/01 01:29:15;;;;;;;37.80;31.67;;;;;;;8.73;65.87;100269.38;127452;1101;102953;-82
2021/05/01 01:31:43;;;;;;;35.33;29.67;;;;;;;8.74;65.91;100268.47;127018;1101;102979;-83
2021/05/01 01:34:11;;;;;;;40.90;31.80;;;;;;;8.79;65.51;100271.91;127128;1102;102968;-84
2021/05/01 01:36:38;;;;;;;38.37;30.70;;;;;;;8.85;65.59;100271.76;127139;1101;101441;-84
2021/05/01 01:39:05;;;;;;;33.40;29.00;;;;;;;8.81;65.41;100270.97;127314;1101;101927;-82
2021/05/01 01:41:32;;;;;;;40.05;31.08;;;;;;;8.83;65.67;100269.14;127111;1101;101927;-82
2021/05/01 01:44:01;;;;;;;40.28;31.55;;;;;;;8.81;65.75;100278.94;127038;1101;102995;-82
2021/05/01 01:46:30;;;;;;;40.43;30.30;;;;;;;8.87;65.70;100286.75;127200;1101;101772;-84
2021/05/01 01:49:07;;;;;;;36.68;30.43;;;;;;;9.02;64.82;100274.95;127040;1096;102964;-83
2021/05/01 01:51:42;;;;;;;37.47;30.93;;;;;;;9.06;64.31;100273.08;127011;1101;103792;-83
2021/05/01 01:54:27;;;;;;;35.63;30.10;;;;;;;9.12;64.41;100280.06;127224;1101;102971;-82
2021/05/01 01:56:59;;;;;;;40.27;31.50;;;;;;;9.11;64.42;100279.17;126888;1101;102911;-83
2021/05/01 01:59:28;;;;;;;41.05;29.13;;;;;;;9.13;64.41;100280.02;126739;1101;102964;-83
2021/05/01 02:02:01;;;;;;;35.48;31.18;;;;;;;9.14;65.16;100272.91;126619;1101;103017;-83
2021/05/01 02:04:28;;;;;;;35.00;29.08;;;;;;;9.13;64.94;100281.78;127218;1095;103017;-83
2021/05/01 02:06:55;;;;;;;35.27;29.87;;;;;;;9.17;64.09;100278.15;126943;1101;103045;-82
2021/05/01 02:09:23;;;;;;;42.93;31.83;;;;;;;9.18;64.40;100270.17;126841;1101;103067;-83
2021/05/01 02:11:49;;;;;;;35.13;28.30;;;;;;;9.13;64.90;100280.02;126815;1101;103085;-83
2021/05/01 02:14:16;;;;;;;35.50;29.27;;;;;;;9.20;64.19;100283.42;127148;1101;103073;-83
2021/05/01 02:16:43;;;;;;;39.77;29.77;;;;;;;9.26;64.66;100275.28;126950;1101;103058;-84
2021/05/01 02:19:10;;;;;;;34.60;28.87;;;;;;;9.20;64.69;100273.65;126928;1101;103122;-83
2021/05/01 02:21:37;;;;;;;35.37;29.70;;;;;;;9.24;64.45;100278.92;127249;1101;102946;-83
2021/05/01 02:24:07;;;;;;;34.23;28.53;;;;;;;9.25;64.17;100276.22;126910;1101;103182;-82
2021/05/01 02:26:35;;;;;;;34.40;27.73;;;;;;;9.26;64.25;100267.31;127253;1101;102970;-83
2021/05/01 02:29:04;;;;;;;33.93;29.50;;;;;;;9.25;64.53;100262.04;126968;1101;102881;-83
2021/05/01 02:31:33;;;;;;;32.98;29.35;;;;;;;9.28;64.29;100259.33;127032;1101;103068;-82
2021/05/01 02:34:08;;;;;;;32.98;28.18;;;;;;;9.26;64.37;100255.82;127128;1101;103313;-83
2021/05/01 02:36:37;;;;;;;35.38;28.33;;;;;;;9.22;64.59;100256.80;126973;1101;102968;-82
2021/05/01 02:39:06;;;;;;;37.53;28.78;;;;;;;9.20;64.07;100254.19;126873;1101;103131;-85
2021/05/01 02:41:49;;;;;;;35.50;28.23;;;;;;;9.29;64.37;100259.30;126634;1101;102986;-84
2021/05/01 02:44:22;;;;;;;33.35;27.55;;;;;;;9.34;63.98;100265.38;126802;1101;103079;-84
2021/05/01 02:46:55;;;;;;;37.73;30.47;;;;;;;9.37;64.48;100262.64;127079;1101;102968;-84
2021/05/01 02:49:27;;;;;;;32.65;27.25;;;;;;;9.28;65.21;100246.05;127337;1101;102949;-84
2021/05/01 02:51:58;;;;;;;35.33;29.45;;;;;;;9.23;65.02;100242.62;127989;1101;101290;-84
2021/05/01 02:54:39;;;;;;;34.57;27.47;;;;;;;9.26;64.64;100251.37;127161;1101;103078;-84
2021/05/01 02:57:06;;;;;;;33.87;28.60;;;;;;;9.29;64.69;100255.74;127314;1101;103788;-84
2021/05/01 02:59:35;;;;;;;35.25;28.25;;;;;;;9.34;64.17;100253.85;127031;1101;102947;-82
2021/05/01 03:02:01;;;;;;;34.18;30.18;;;;;;;9.36;64.21;100255.56;127199;1101;102997;-86
2021/05/01 03:04:31;;;;;;;33.67;27.23;;;;;;;9.39;63.93;100265.25;127539;1101;101588;-84
2021/05/01 03:07:02;;;;;;;33.63;26.23;;;;;;;9.45;64.62;100267.78;127197;1101;105533;-83
2021/05/01 03:09:36;;;;;;;34.10;27.75;;;;;;;9.51;64.40;100259.64;127448;1101;101490;-84
2021/05/01 03:12:04;;;;;;;35.73;28.18;;;;;;;9.41;64.16;100247.50;127520;1096;102965;-84
2021/05/01 03:14:31;;;;;;;33.87;29.00;;;;;;;9.39;64.87;100243.13;127111;1101;104060;-84
2021/05/01 03:16:57;;;;;;;31.80;26.28;;;;;;;9.35;64.70;100244.98;126830;1101;102949;-84
2021/05/01 03:19:27;;;;;;;34.30;29.30;;;;;;;9.39;64.84;100251.10;126941;1101;103018;-84
2021/05/01 03:21:54;;;;;;;38.13;28.90;;;;;;;9.45;64.67;100249.17;127090;1101;103115;-84
2021/05/01 03:24:21;;;;;;;32.07;27.70;;;;;;;9.51;63.75;100240.16;127206;1101;102982;-84
2021/05/01 03:26:53;;;;;;;37.30;29.30;;;;;;;9.59;64.08;100242.64;127222;1101;103037;-83
2021/05/01 03:29:35;;;;;;;36.80;28.88;;;;;;;9.62;63.66;100253.19;126793;1104;103266;-84
2021/05/01 03:32:04;;;;;;;32.90;29.38;;;;;;;9.56;64.33;100261.30;126522;1099;101973;-83
2021/05/01 03:34:34;;;;;;;29.85;26.18;;;;;;;9.56;63.75;100251.56;126734;1104;103317;-84
2021/05/01 03:37:03;;;;;;;33.95;28.70;;;;;;;9.57;63.79;100255.08;126462;1104;103230;-84
2021/05/01 03:39:39;;;;;;;32.00;27.08;;;;;;;9.53;63.88;100255.17;126640;1103;102970;-86
2021/05/01 03:42:06;;;;;;;34.60;29.17;;;;;;;9.54;64.63;100245.39;126574;1104;103286;-85
2021/05/01 03:44:36;;;;;;;31.33;26.67;;;;;;;9.55;64.92;100244.49;126656;1104;102990;-85
2021/05/01 03:47:08;;;;;;;35.20;27.93;;;;;;;9.57;63.85;100229.39;126686;1104;103094;-84
2021/05/01 03:49:37;;;;;;;35.10;27.03;;;;;;;9.62;64.48;100223.94;126835;1100;103068;-84
2021/05/01 03:52:16;;;;;;;34.53;27.47;;;;;;;9.62;63.92;100223.94;126676;1104;103190;-84
2021/05/01 03:54:58;;;;;;;31.88;26.68;;;;;;;9.65;64.33;100218.53;126271;1104;103040;-84
2021/05/01 03:57:45;;;;;;;30.48;26.45;;;;;;;9.64;64.09;100209.70;126641;1104;103133;-83
2021/05/01 04:00:15;;;;;;;30.93;26.23;;;;;;;9.64;63.85;100203.52;126536;1105;103135;-83
2021/05/01 04:02:42;;;;;;;30.47;26.70;;;;;;;9.65;64.06;100183.97;126642;1104;102990;-83
2021/05/01 04:05:10;;;;;;;34.05;27.20;;;;;;;9.67;64.20;100190.14;126731;1099;103077;-84
2021/05/01 04:07:37;;;;;;;37.53;27.18;;;;;;;9.69;63.49;100196.30;126676;1101;102944;-83
2021/05/01 04:10:07;;;;;;;31.90;27.23;;;;;;;9.71;64.36;100202.44;127166;1101;103132;-87
2021/05/01 04:12:33;;;;;;;32.53;25.30;;;;;;;9.51;65.05;100209.13;126994;1096;102957;-84
2021/05/01 04:15:01;;;;;;;27.53;24.35;;;;;;;9.42;65.74;100203.17;127206;1101;101748;-85
2021/05/01 04:17:28;;;;;;;31.38;24.95;;;;;;;9.40;65.35;100203.22;127003;1101;102968;-84
2021/05/01 04:19:58;;;;;;;28.28;25.15;;;;;;;9.46;65.33;100203.08;126701;1101;103193;-85
2021/05/01 04:22:28;;;;;;;31.40;25.20;;;;;;;9.53;65.15;100231.24;127096;1101;103014;-85
2021/05/01 04:25:01;;;;;;;24.05;19.95;;;;;;;9.61;65.69;100216.87;126670;1101;102981;-84
2021/05/01 04:27:29;;;;;;;23.10;20.63;;;;;;;9.64;65.51;100215.02;126869;1101;103032;-85
2021/05/01 04:29:58;;;;;;;25.63;22.13;;;;;;;9.73;65.42;100228.98;127177;1101;102956;-84
2021/05/01 04:32:41;;;;;;;23.15;20.05;;;;;;;9.81;64.62;100238.53;126641;1101;102991;-83
2021/05/01 04:35:24;;;;;;;24.10;20.70;;;;;;;9.90;64.39;100247.17;126744;1098;102594;-84
2021/05/01 04:38:09;;;;;;;26.10;21.15;;;;;;;9.91;64.74;100239.15;126411;1105;102949;-83
2021/05/01 04:40:39;;;;;;;23.03;20.03;;;;;;;9.99;64.33;100242.47;126672;1095;102749;-85
2021/05/01 04:43:12;;;;;;;25.80;21.07;;;;;;;10.04;64.54;100240.56;126892;1101;103078;-83
2021/05/01 04:45:41;;;;;;;22.83;19.30;;;;;;;10.07;63.76;100250.26;126685;1101;104726;-83
2021/05/01 04:48:08;;;;;;;19.85;17.88;;;;;;;10.09;64.02;100245.78;126966;1101;102939;-84
2021/05/01 04:50:35;;;;;;;21.97;19.43;;;;;;;10.10;64.10;100242.19;127379;1101;103181;-84
2021/05/01 04:53:03;;;;;;;22.13;19.48;;;;;;;10.12;63.56;100243.03;127191;1101;103020;-84
2021/05/01 04:55:34;;;;;;;21.38;18.98;;;;;;;10.13;64.67;100242.13;126880;1101;103093;-85
2021/05/01 04:58:01;;;;;;;23.50;20.50;;;;;;;10.02;64.18;100247.73;126833;1101;101919;-84
2021/05/01 05:00:32;;;;;;;23.13;20.63;;;;;;;10.04;64.56;100245.89;126586;1102;102952;-84
2021/05/01 05:02:58;;;;;;;24.83;19.47;;;;;;;10.06;64.07;100243.19;126606;1096;102982;-86
2021/05/01 05:05:26;;;;;;;25.95;20.00;;;;;;;10.09;64.37;100248.44;126720;1096;103061;-83
2021/05/01 05:07:53;;;;;;;24.35;19.88;;;;;;;10.08;64.84;100240.51;126638;1101;102965;-83
2021/05/01 05:10:21;;;;;;;23.07;19.83;;;;;;;10.04;65.00;100234.39;126730;1101;102958;-83
2021/05/01 05:12:49;;;;;;;25.40;20.15;;;;;;;10.01;65.12;100230.02;127223;1101;101914;-84
2021/05/01 05:15:19;;;;;;;30.60;26.25;;;;;;;9.99;64.71;100241.61;127325;1101;103872;-83
2021/05/01 05:18:09;;;;;;;26.48;21.93;;;;;;;10.02;64.90;100237.09;126733;1104;103705;-85
2021/05/01 05:20:52;;;;;;;28.63;24.57;;;;;;;10.07;64.49;100244.08;126818;1104;101442;-83
2021/05/01 05:23:34;;;;;;;27.50;23.03;;;;;;;10.11;64.95;100251.92;126367;1107;103092;-83
2021/05/01 05:26:06;;;;;;;26.30;23.28;;;;;;;10.12;64.97;100255.47;126427;1107;102923;-83
2021/05/01 05:28:33;;;;;;;28.17;22.33;;;;;;;10.13;64.73;100257.20;126167;1107;103083;-83
2021/05/01 05:31:04;;;;;;;26.00;22.55;;;;;;;10.18;64.11;100257.95;126250;1108;103171;-83
2021/05/01 05:33:32;;;;;;;25.47;20.97;;;;;;;10.20;64.39;100246.34;126268;1108;102927;-84
2021/05/01 05:35:59;;;;;;;23.63;21.23;;;;;;;10.28;64.73;100254.13;126888;1101;102931;-85
2021/05/01 05:38:30;;;;;;;26.63;20.78;;;;;;;10.19;65.02;100246.39;126232;1107;103782;-84
2021/05/01 05:40:58;;;;;;;24.98;20.70;;;;;;;10.10;64.88;100246.64;126464;1108;102100;-82
2021/05/01 05:43:28;;;;;;;26.60;21.60;;;;;;;10.21;64.59;100242.78;126636;1108;103091;-84
2021/05/01 05:45:55;;;;;;;22.47;20.03;;;;;;;10.25;64.60;100256.89;126334;1107;103019;-83
2021/05/01 05:48:22;;;;;;;24.20;21.47;;;;;;;10.14;65.57;100270.48;126713;1108;103384;-84
2021/05/01 05:50:49;;;;;;;28.03;24.18;;;;;;;10.16;65.35;100263.31;126668;1107;103243;-84
2021/05/01 05:53:16;;;;;;;24.00;21.17;;;;;;;10.24;65.16;100265.78;126473;1108;103033;-83
2021/05/01 05:55:45;;;;;;;27.40;21.80;;;;;;;10.36;64.32;100269.93;126782;1104;103165;-84
2021/05/01 05:58:12;;;;;;;23.23;19.53;;;;;;;10.47;64.41;100278.48;126412;1099;103136;-84
2021/05/01 06:00:39;;;;;;;25.38;21.68;;;;;;;10.39;64.73;100276.96;126786;1102;103059;-84
2021/05/01 06:03:07;;;;;;;22.05;19.70;;;;;;;10.35;65.11;100276.16;126925;1101;102980;-84
2021/05/01 06:05:56;;;;;;;28.73;20.60;;;;;;;10.21;65.24;100280.04;127077;1101;103010;-85
2021/05/01 06:08:29;;;;;;;22.15;19.48;;;;;;;10.33;64.85;100277.95;126914;1101;103022;-84
2021/05/01 06:11:12;;;;;;;23.47;19.63;;;;;;;10.43;64.97;100270.63;127075;1101;103102;-84
2021/05/01 06:13:55;;;;;;;23.70;19.83;;;;;;;10.52;64.64;100283.69;127130;1101;103014;-85
2021/05/01 06:16:39;;;;;;;25.17;22.23;;;;;;;10.69;63.92;100281.42;126611;1101;103938;-84
2021/05/01 06:19:10;;;;;;;24.85;21.95;;;;;;;10.77;63.72;100281.20;127161;1101;103188;-83
2021/05/01 06:21:52;;;;;;;26.65;21.23;;;;;;;10.84;64.05;100282.75;126809;1101;102938;-83
2021/05/01 06:24:42;;;;;;;27.63;21.95;;;;;;;10.92;63.79;100290.53;126367;1104;103134;-84
2021/05/01 06:27:14;;;;;;;25.85;20.45;;;;;;;10.92;63.48;100285.20;126281;1104;103121;-84
2021/05/01 06:29:52;;;;;;;23.03;20.60;;;;;;;10.75;63.75;100287.48;126475;1104;103634;-84
2021/05/01 06:32:26;;;;;;;20.13;17.03;;;;;;;10.61;64.11;100291.42;126510;1104;103138;-85
2021/05/01 06:35:16;;;;;;;20.00;17.70;;;;;;;10.42;65.03;100293.70;126638;1108;103227;-84
2021/05/01 06:38:15;;;;;;;21.68;19.03;;;;;;;10.37;64.83;100290.32;126405;1108;103161;-83
2021/05/01 06:40:50;;;;;;;21.20;18.08;;;;;;;10.53;64.59;100296.09;126439;1107;103094;-85
2021/05/01 06:44:03;;;;;;;22.17;18.77;;;;;;;10.63;64.09;100305.55;126617;1108;101708;-86
2021/05/01 06:46:52;;;;;;;23.03;19.07;;;;;;;10.79;63.73;100310.45;125531;1110;103189;-86
2021/05/01 06:49:34;;;;;;;18.27;16.30;;;;;;;10.80;63.83;100310.41;125961;1110;104668;-85
2021/05/01 06:52:17;;;;;;;21.30;16.73;;;;;;;10.63;63.73;100315.34;125562;1110;102099;-84
2021/05/01 06:54:50;;;;;;;17.33;15.60;;;;;;;10.52;64.04;100319.17;125785;1108;104710;-85
2021/05/01 06:57:24;;;;;;;19.93;17.80;;;;;;;10.47;63.94;100307.77;126116;1108;102921;-84
2021/05/01 06:59:54;;;;;;;19.50;16.60;;;;;;;10.40;64.44;100308.86;126224;1108;103136;-82
2021/05/01 07:02:32;;;;;;;21.08;16.73;;;;;;;10.27;64.51;100304.75;126359;1104;102445;-83
2021/05/01 07:05:04;;;;;;;27.63;17.90;;;;;;;10.25;64.55;100312.78;126923;1104;103085;-85
2021/05/01 07:07:32;;;;;;;20.08;18.08;;;;;;;10.43;64.93;100310.57;126653;1099;103122;-85
2021/05/01 07:10:13;;;;;;;20.33;17.07;;;;;;;10.51;64.63;100312.09;127008;1104;103118;-84
2021/05/01 07:12:42;;;;;;;20.90;16.60;;;;;;;10.55;64.17;100312.89;126541;1101;103070;-82
2021/05/01 07:15:16;;;;;;;19.20;16.27;;;;;;;10.60;64.11;100312.77;127235;1101;101901;-84
2021/05/01 07:17:46;;;;;;;21.70;18.03;;;;;;;10.50;64.88;100312.13;126793;1097;103240;-84
2021/05/01 07:20:28;;;;;;;18.48;16.15;;;;;;;10.66;64.61;100320.57;126672;1101;102945;-83
2021/05/01 07:22:56;;;;;;;18.80;16.60;;;;;;;10.84;63.93;100320.05;127126;1101;101226;-83
2021/05/01 07:25:26;;;;;;;24.13;19.53;;;;;;;11.01;62.98;100324.91;127213;1101;102891;-83
2021/05/01 07:28:05;;;;;;;22.85;20.45;;;;;;;11.02;62.57;100328.42;126882;1101;102997;-83
2021/05/01 07:30:39;;;;;;;21.80;19.50;;;;;;;10.96;62.84;100325.96;127220;1101;102980;-85
2021/05/01 07:33:53;;;;;;;21.08;17.85;;;;;;;11.01;63.40;100321.38;126441;1101;103024;-83
2021/05/01 07:36:34;;;;;;;21.50;19.20;;;;;;;10.99;63.22;100325.86;127378;1101;101753;-84
2021/05/01 07:39:06;;;;;;;22.08;18.80;;;;;;;11.11;62.68;100319.30;127029;1101;103110;-85
2021/05/01 07:41:41;;;;;;;28.03;20.23;;;;;;;11.29;62.54;100317.85;126853;1101;102946;-85
2021/05/01 07:44:30;;;;;;;21.43;19.18;;;;;;;11.38;61.68;100309.57;126880;1104;102967;-83
2021/05/01 07:47:05;;;;;;;22.95;19.00;;;;;;;11.32;61.76;100309.78;126650;1104;103246;-82
2021/05/01 07:49:40;;;;;;;22.73;20.30;;;;;;;11.31;61.93;100308.89;127142;1101;103240;-82
2021/05/01 07:52:12;;;;;;;22.28;19.25;;;;;;;11.40;61.79;100301.55;127318;1101;102872;-84
2021/05/01 07:54:42;;;;;;;27.50;21.83;;;;;;;11.40;61.77;100304.22;127115;1102;101435;-85
2021/05/01 07:57:13;;;;;;;23.57;20.77;;;;;;;11.44;61.94;100295.20;127507;1101;101923;-85
2021/05/01 07:59:47;;;;;;;23.73;19.88;;;;;;;11.49;61.47;100298.56;127007;1101;103135;-83
2021/05/01 08:02:21;;;;;;;23.43;20.93;;;;;;;11.48;61.67;100302.17;126868;1096;102385;-86
2021/05/01 08:05:15;;;;;;;24.57;21.90;;;;;;;11.38;61.41;100302.47;126840;1101;103084;-84
2021/05/01 08:07:51;;;;;;;23.55;19.38;;;;;;;11.41;61.90;100303.27;127334;1101;100954;-84
2021/05/01 08:10:30;;;;;;;22.60;18.78;;;;;;;11.52;61.46;100298.48;126484;1101;102193;-83
2021/05/01 08:12:58;;;;;;;21.13;18.85;;;;;;;11.49;61.05;100301.23;126974;1101;103001;-84
2021/05/01 08:15:29;;;;;;;22.83;20.30;;;;;;;11.47;61.38;100303.95;127130;1101;103099;-85
2021/05/01 08:17:56;;;;;;;24.80;18.75;;;;;;;11.51;61.39;100289.59;127025;1101;102968;-86
2021/05/01 08:20:23;;;;;;;22.13;18.07;;;;;;;11.56;61.36;100288.60;127419;1101;102948;-84
2021/05/01 08:22:50;;;;;;;21.17;18.77;;;;;;;11.61;61.52;100281.30;127622;1101;102971;-83
2021/05/01 08:25:20;;;;;;;18.28;15.38;;;;;;;11.63;61.09;100279.47;127294;1101;103084;-85
2021/05/01 08:27:48;;;;;;;16.88;15.08;;;;;;;11.66;61.04;100280.25;127199;1096;102909;-83
2021/05/01 08:30:29;;;;;;;17.43;15.25;;;;;;;11.64;61.73;100271.41;127598;1101;101045;-84
2021/05/01 08:32:58;;;;;;;16.08;14.45;;;;;;;11.68;62.31;100269.52;126884;1101;103035;-85
2021/05/01 08:35:27;;;;;;;14.07;12.63;;;;;;;11.72;62.71;100271.16;127211;1101;101243;-84
2021/05/01 08:38:02;;;;;;;17.73;14.03;;;;;;;11.73;62.15;100269.36;127116;1101;101913;-85
2021/05/01 08:40:43;;;;;;;14.83;13.30;;;;;;;11.73;62.50;100262.24;126517;1104;104705;-85
2021/05/01 08:43:13;;;;;;;14.23;12.83;;;;;;;11.74;63.64;100265.77;126722;1104;103129;-84
2021/05/01 08:45:58;;;;;;;17.53;14.95;;;;;;;11.68;62.79;100262.38;126728;1104;103014;-85
2021/05/01 08:48:47;;;;;;;20.07;16.40;;;;;;;11.57;63.57;100264.55;126574;1107;102783;-87
2021/05/01 08:51:29;;;;;;;17.38;15.63;;;;;;;11.61;63.65;100270.63;126811;1107;102977;-87
2021/05/01 08:53:56;;;;;;;18.18;16.40;;;;;;;11.68;63.70;100270.38;126254;1107;103238;-86
2021/05/01 08:56:26;;;;;;;17.73;15.93;;;;;;;11.69;63.40;100274.80;126239;1107;103295;-89
2021/05/01 08:58:57;;;;;;;17.90;15.18;;;;;;;11.80;63.40;100281.59;126352;1107;103090;-85
2021/05/01 09:01:27;;;;;;;22.18;19.88;;;;;;;11.88;62.58;100274.19;126581;1104;102988;-85
2021/05/01 09:03:55;;;;;;;21.35;17.93;;;;;;;11.94;62.72;100283.78;126280;1105;102971;-86
2021/05/01 09:06:23;;;;;;;17.63;14.47;;;;;;;11.96;63.26;100280.17;126773;1098;103163;-86
2021/05/01 09:08:58;;;;;;;16.38;13.25;;;;;;;11.92;62.61;100282.97;126414;1104;102942;-85
2021/05/01 09:11:44;;;;;;;12.63;11.30;;;;;;;11.98;62.97;100290.78;126970;1104;101258;-86
2021/05/01 09:14:22;;;;;;;13.95;11.53;;;;;;;12.04;62.03;100295.92;126740;1099;102623;-83
2021/05/01 09:17:12;;;;;;;14.30;11.93;;;;;;;11.98;62.22;100301.46;126676;1104;102167;-83
2021/05/01 09:20:07;;;;;;;11.53;10.20;;;;;;;11.93;63.36;100306.05;127502;1101;101651;-84
2021/05/01 09:22:57;;;;;;;11.38;10.28;;;;;;;11.86;62.85;100303.59;127078;1097;102971;-82
2021/05/01 09:25:27;;;;;;;12.38;10.98;;;;;;;11.92;62.90;100306.99;126997;1101;103092;-85
2021/05/01 09:28:14;;;;;;;12.85;11.35;;;;;;;11.83;62.88;100306.34;126847;1096;102944;-83
2021/05/01 09:31:01;;;;;;;11.97;10.67;;;;;;;11.81;63.42;100310.88;126857;1101;101656;-85
2021/05/01 09:33:31;;;;;;;12.50;11.15;;;;;;;11.82;64.38;100303.73;127468;1101;103078;-84
2021/05/01 09:36:20;;;;;;;16.40;12.43;;;;;;;11.87;63.62;100305.35;126515;1101;103131;-84
2021/05/01 09:39:07;;;;;;;11.70;10.17;;;;;;;11.85;63.95;100306.33;127370;1101;101645;-88
2021/05/01 09:41:36;;;;;;;13.33;11.17;;;;;;;11.64;65.16;100305.23;127183;1101;103509;-83
2021/05/01 09:44:06;;;;;;;18.10;12.87;;;;;;;11.68;64.26;100301.53;127316;1101;102940;-86
2021/05/01 09:46:43;;;;;;;13.30;12.03;;;;;;;11.75;64.66;100289.73;127467;1101;101672;-85
2021/05/01 09:49:22;;;;;;;13.28;11.93;;;;;;;11.83;65.32;100289.48;126973;1101;101681;-84
2021/05/01 09:51:57;;;;;;;13.13;11.75;;;;;;;11.85;65.21;100284.98;127300;1101;102984;-83
2021/05/01 09:54:40;;;;;;;12.73;11.43;;;;;;;11.92;64.78;100277.64;127063;1101;103190;-84
2021/05/01 09:57:16;;;;;;;13.80;12.38;;;;;;;11.97;65.12;100278.36;126904;1101;103673;-86
2021/05/01 09:59:55;;;;;;;14.43;12.13;;;;;;;12.03;64.71;100278.16;126907;1101;103205;-85
2021/05/01 10:02:41;;;;;;;12.55;10.98;;;;;;;12.04;64.46;100280.77;127202;1101;103135;-85
2021/05/01 10:05:13;;;;;;;16.00;12.65;;;;;;;12.06;64.78;100275.38;127385;1101;101787;-85
2021/05/01 10:07:51;;;;;;;14.83;13.00;;;;;;;12.08;64.73;100280.69;126943;1101;103004;-84
2021/05/01 10:10:19;;;;;;;12.50;11.20;;;;;;;12.07;64.19;100284.27;127183;1101;103188;-85
2021/05/01 10:12:49;;;;;;;13.43;12.03;;;;;;;12.09;65.07;100287.74;126974;1101;101590;-84
2021/05/01 10:15:20;;;;;;;14.60;12.20;;;;;;;12.14;64.71;100291.13;126851;1101;103419;-85
2021/05/01 10:17:51;;;;;;;13.23;11.60;;;;;;;12.15;64.61;100291.08;126899;1101;103075;-84
2021/05/01 10:20:21;;;;;;;17.07;12.30;;;;;;;12.29;64.04;100297.73;127122;1101;103253;-87
2021/05/01 10:22:50;;;;;;;18.47;15.63;;;;;;;12.42;63.86;100296.37;126704;1101;102442;-84
2021/05/01 10:25:22;;;;;;;14.60;12.80;;;;;;;12.51;64.22;100292.51;126512;1101;103042;-82
2021/05/01 10:28:08;;;;;;;13.63;12.23;;;;;;;12.51;63.98;100297.85;127553;1101;102885;-83
2021/05/01 10:30:41;;;;;;;13.80;12.03;;;;;;;12.52;63.48;100288.91;126809;1097;102963;-86
2021/05/01 10:33:26;;;;;;;15.37;12.67;;;;;;;12.52;63.57;100297.79;127115;1101;102126;-87
2021/05/01 10:36:25;;;;;;;12.18;11.03;;;;;;;12.48;63.38;100301.50;127172;1101;101974;-88
2021/05/01 10:39:05;;;;;;;12.45;11.25;;;;;;;12.32;64.14;100292.30;127160;1101;103136;-84
2021/05/01 10:41:33;;;;;;;12.83;11.53;;;;;;;12.36;62.99;100292.13;127326;1101;100832;-86
2021/05/01 10:44:09;;;;;;;15.85;12.00;;;;;;;12.42;63.13;100290.16;126934;1101;103414;-85
2021/05/01 10:47:08;;;;;;;15.10;12.37;;;;;;;12.45;63.01;100293.61;127306;1101;101067;-86
2021/05/01 10:49:55;;;;;;;12.00;10.80;;;;;;;12.44;63.17;100291.86;126437;1104;103110;-83
2021/05/01 10:52:27;;;;;;;11.57;10.33;;;;;;;12.46;62.86;100292.69;126564;1104;102945;-86
2021/05/01 10:55:01;;;;;;;17.17;11.90;;;;;;;12.44;63.62;100299.88;127086;1101;103059;-85
2021/05/01 10:57:32;;;;;;;12.17;11.00;;;;;;;12.35;62.82;100294.86;126894;1101;102911;-86
2021/05/01 11:00:12;;;;;;;13.03;11.67;;;;;;;12.34;63.54;100293.10;126973;1101;103371;-86
2021/05/01 11:02:43;;;;;;;13.10;11.60;;;;;;;12.33;62.88;100292.24;126987;1102;103039;-85
2021/05/01 11:05:17;;;;;;;11.95;10.85;;;;;;;12.38;63.08;100294.73;126958;1101;102305;-84
2021/05/01 11:07:51;;;;;;;11.80;10.53;;;;;;;12.40;63.33;100290.23;126871;1101;103092;-84
2021/05/01 11:10:20;;;;;;;12.90;11.75;;;;;;;12.42;63.61;100275.00;127438;1101;102347;-84
2021/05/01 11:12:53;;;;;;;13.67;12.30;;;;;;;12.43;63.35;100279.42;127024;1101;102997;-84
2021/05/01 11:15:26;;;;;;;10.40;9.08;;;;;;;12.44;63.40;100272.30;127315;1101;101174;-84
2021/05/01 11:18:08;;;;;;;11.88;10.68;;;;;;;12.38;63.46;100274.27;126775;1101;103164;-84
2021/05/01 11:20:40;;;;;;;10.67;9.23;;;;;;;12.26;63.80;100265.80;126772;1101;103001;-84
2021/05/01 11:23:14;;;;;;;15.00;12.83;;;;;;;12.07;64.66;100270.92;127161;1101;102796;-83
2021/05/01 11:25:42;;;;;;;13.23;11.95;;;;;;;12.11;63.99;100259.22;126474;1101;103067;-84